Airfield :
LOGIN :

Register | Disclaimer

   EN    FR    IT 

 










Legend :    VFR   Marginal VFR   IFR   Intensive IFR   Very Intensive IFR
Visi :
Ceiling :
>= 8 km
>= 3000ft
5 to 8 km
1000 to 3000 ft
1500m to 5 km
500 to 1000 ft
800 to 1500m
200 to 500 ft
< 800m
< 200 ft
Symbols :   Thunderstorms  Fog  Heavy snow  Heavy precipitations  Wind > 20 kt
SIGMETs :     Misc.  Thunderstorms  Icing  Turbulence  Mountain Waves  Volcanic Ashes






- Airport Elevation : 101 ft
- IATA code : GLO


EGBJ - Gloucestershire

CURRENT METAR :
  • 230820Z 17006KT 150V210 9999 FEW007 12/10 Q1005

EXPIRED METARs :
  • 230750Z 17005KT 9999 FEW008 SCT012 12/11 Q1005
  • 230720Z 20004KT 9999 FEW007 SCT010 12/11 Q1006
  • 230650Z 19007KT 9999 FEW007 12/11 Q1005

TAF TAF EGBJ
Valid from the 23 at 09:00 until the 23 at 18:00 UTC


230801Z 2309/2318 22010KT 9999 FEW012 SCT025
PROB40
TEMPO 2309/2314 6000 RADZ BKN010



MET'MAP, your aeronautical weather chart ! - Copyright ORBIFLY December 2007 - Disclaimer

ORBIFLY MET'MAP TEAM :

Programming & Development : Alexandra Zaïnal
Concept & original design : Baudouin d'Aumeries
Assistance for programming : Marc-Olivier Méhu
Technical & hardware support : Manuel Goepfert

Contact : metmap@orbifly.com




SOURCES & CREDITS :

   NOAA